CGCAG 23N-KFRG

Flight info

Callsign CGCAG
Flight time N/A
Altitude 1500
Route VFR SHORELINE WESTBOUND
Aircraft C172/L-G/C

Departure

Time N/A
Airport 23N

Arrival

Time 2026-04-30 00:19
Airport Republic Airport (KFRG)
Time Latitude Longitude Altitude Speed Heading
2026-04-29 23:46 40.75510 -73.05374 35 ft 0 kts 10°
2026-04-30 00:00 40.75511 -73.05374 35 ft 0 kts
2026-04-30 00:00 40.75539 -73.05361 35 ft 3 kts 14°
2026-04-30 00:00 40.75609 -73.05357 36 ft 16 kts 356°
2026-04-30 00:00 40.75742 -73.05378 37 ft 22 kts 355°
2026-04-30 00:01 40.75914 -73.05379 38 ft 26 kts 358°
2026-04-30 00:01 40.76083 -73.05393 39 ft 15 kts 353°
2026-04-30 00:01 40.76134 -73.05393 41 ft 1 kts 49°
2026-04-30 00:01 40.76136 -73.05386 41 ft 0 kts 94°
2026-04-30 00:02 40.76137 -73.05354 41 ft 9 kts 132°
2026-04-30 00:03 40.75938 -73.05315 40 ft 51 kts 171°
2026-04-30 00:03 40.75565 -73.05247 166 ft 59 kts 175°
2026-04-30 00:03 40.75125 -73.05214 322 ft 66 kts 174°
2026-04-30 00:03 40.74635 -73.05202 470 ft 72 kts 175°
2026-04-30 00:04 40.74094 -73.05182 569 ft 82 kts 175°
2026-04-30 00:04 40.73506 -73.05148 675 ft 88 kts 175°
2026-04-30 00:04 40.72893 -73.05125 832 ft 87 kts 174°
2026-04-30 00:04 40.72279 -73.05089 991 ft 86 kts 172°
2026-04-30 00:05 40.71693 -73.05045 1160 ft 85 kts 175°
2026-04-30 00:05 40.71102 -73.05102 1309 ft 83 kts 175°
2026-04-30 00:05 40.70519 -73.05051 1401 ft 88 kts 171°
2026-04-30 00:05 40.69870 -73.05016 1412 ft 98 kts 178°
2026-04-30 00:06 40.69229 -73.05129 1581 ft 91 kts 189°
2026-04-30 00:06 40.68592 -73.05474 1533 ft 107 kts 207°
2026-04-30 00:06 40.68043 -73.06168 1553 ft 112 kts 232°
2026-04-30 00:06 40.67704 -73.07124 1471 ft 120 kts 248°
2026-04-30 00:07 40.67437 -73.08209 1424 ft 119 kts 246°
2026-04-30 00:07 40.67080 -73.09132 1484 ft 113 kts 232°
2026-04-30 00:07 40.66660 -73.09972 1562 ft 109 kts 245°
2026-04-30 00:07 40.66478 -73.10959 1564 ft 112 kts 253°
2026-04-30 00:08 40.66294 -73.11955 1606 ft 112 kts 255°
2026-04-30 00:08 40.66172 -73.12992 1609 ft 114 kts 257°
2026-04-30 00:08 40.66005 -73.14020 1586 ft 117 kts 253°
2026-04-30 00:08 40.65828 -73.15102 1515 ft 122 kts 256°
2026-04-30 00:09 40.65674 -73.16180 1474 ft 121 kts 257°
2026-04-30 00:09 40.65615 -73.17300 1412 ft 123 kts 270°
2026-04-30 00:09 40.65748 -73.18420 1360 ft 123 kts 283°
2026-04-30 00:09 40.66021 -73.19503 1283 ft 125 kts 288°
2026-04-30 00:10 40.66310 -73.20545 1256 ft 123 kts 289°
2026-04-30 00:10 40.66616 -73.21565 1247 ft 120 kts 293°
2026-04-30 00:10 40.66931 -73.22613 1159 ft 124 kts 289°
2026-04-30 00:10 40.67272 -73.23648 1053 ft 124 kts 295°
2026-04-30 00:11 40.67654 -73.24693 874 ft 125 kts 294°
2026-04-30 00:11 40.67921 -73.25751 823 ft 118 kts 284°
2026-04-30 00:11 40.68142 -73.26742 890 ft 109 kts 285°
2026-04-30 00:11 40.68410 -73.27673 903 ft 109 kts 294°
2026-04-30 00:12 40.68731 -73.28586 897 ft 110 kts 291°
2026-04-30 00:12 40.69023 -73.29504 945 ft 107 kts 291°
2026-04-30 00:12 40.69302 -73.30403 1012 ft 104 kts 291°
2026-04-30 00:12 40.69591 -73.31279 1076 ft 104 kts 292°
2026-04-30 00:13 40.69907 -73.32169 1081 ft 109 kts 293°
2026-04-30 00:13 40.70238 -73.33072 1087 ft 112 kts 296°
2026-04-30 00:13 40.70615 -73.33999 1058 ft 116 kts 299°
2026-04-30 00:13 40.71050 -73.34892 1080 ft 114 kts 306°
2026-04-30 00:14 40.71510 -73.35709 1170 ft 109 kts 307°
2026-04-30 00:14 40.71996 -73.36483 1180 ft 112 kts 311°
2026-04-30 00:14 40.72546 -73.37227 1195 ft 113 kts 316°
2026-04-30 00:14 40.73134 -73.37934 1197 ft 115 kts 320°
2026-04-30 00:15 40.73758 -73.38628 1148 ft 118 kts 322°
2026-04-30 00:15 40.74376 -73.39352 1080 ft 119 kts 315°
2026-04-30 00:15 40.74971 -73.40083 1078 ft 115 kts 319°
2026-04-30 00:15 40.75577 -73.40724 1054 ft 112 kts 326°
2026-04-30 00:16 40.76167 -73.41277 1147 ft 97 kts 324°
2026-04-30 00:16 40.76699 -73.41772 1157 ft 88 kts 325°
2026-04-30 00:16 40.76952 -73.42434 1008 ft 85 kts 262°
2026-04-30 00:16 40.76823 -73.43174 880 ft 81 kts 243°
2026-04-30 00:17 40.76508 -73.43721 783 ft 73 kts 215°
2026-04-30 00:17 40.76150 -73.44157 743 ft 69 kts 216°
2026-04-30 00:17 40.75790 -73.44569 714 ft 68 kts 212°
2026-04-30 00:17 40.75368 -73.44664 692 ft 62 kts 150°
2026-04-30 00:18 40.75006 -73.44349 648 ft 63 kts 140°
2026-04-30 00:18 40.74690 -73.43936 557 ft 64 kts 135°
2026-04-30 00:18 40.74383 -73.43500 451 ft 66 kts 134°
2026-04-30 00:18 40.74073 -73.43047 370 ft 65 kts 133°
2026-04-30 00:19 40.73771 -73.42621 272 ft 66 kts 133°
2026-04-30 00:19 40.73464 -73.42174 157 ft 65 kts 133°
2026-04-30 00:19 40.73161 -73.41737 75 ft 61 kts 134°
2026-04-30 00:19 40.72909 -73.41370 70 ft 46 kts 131°
2026-04-30 00:20 40.72628 -73.40964 82 ft 75 kts 131°
2026-04-30 00:20 40.72247 -73.40417 212 ft 83 kts 134°
2026-04-30 00:20 40.71862 -73.39886 443 ft 78 kts 133°
2026-04-30 00:20 40.71673 -73.39236 633 ft 82 kts 85°
2026-04-30 00:21 40.71978 -73.38568 768 ft 92 kts 45°
2026-04-30 00:21 40.72496 -73.38026 891 ft 97 kts 39°
2026-04-30 00:21 40.73153 -73.37732 958 ft 105 kts
2026-04-30 00:21 40.73865 -73.38062 952 ft 113 kts 327°
2026-04-30 00:22 40.74487 -73.38746 954 ft 116 kts 318°
2026-04-30 00:22 40.75066 -73.39477 989 ft 115 kts 312°
2026-04-30 00:22 40.75567 -73.40282 1034 ft 113 kts 305°
2026-04-30 00:22 40.75934 -73.41187 981 ft 110 kts 281°
2026-04-30 00:23 40.75827 -73.42100 811 ft 97 kts 236°
2026-04-30 00:23 40.75370 -73.42692 698 ft 85 kts 216°
2026-04-30 00:23 40.74939 -73.43143 639 ft 77 kts 208°
2026-04-30 00:23 40.74462 -73.43376 514 ft 70 kts 168°
2026-04-30 00:24 40.74065 -73.43031 370 ft 68 kts 136°
2026-04-30 00:24 40.73750 -73.42584 253 ft 66 kts 133°
2026-04-30 00:24 40.73439 -73.42133 127 ft 64 kts 134°
2026-04-30 00:24 40.73164 -73.41740 70 ft 50 kts 132°
2026-04-30 00:25 40.72889 -73.41336 99 ft 71 kts 134°
2026-04-30 00:25 40.72528 -73.40821 250 ft 77 kts 135°
2026-04-30 00:25 40.72154 -73.40298 434 ft 79 kts 131°
2026-04-30 00:25 40.72072 -73.39608 611 ft 85 kts 73°
2026-04-30 00:26 40.72452 -73.38964 736 ft 94 kts 47°
2026-04-30 00:26 40.73006 -73.38420 815 ft 104 kts 17°
2026-04-30 00:26 40.73723 -73.38558 900 ft 108 kts 338°
2026-04-30 00:26 40.74415 -73.38990 926 ft 114 kts 338°
2026-04-30 00:27 40.75115 -73.39535 952 ft 118 kts 319°
2026-04-30 00:27 40.75635 -73.40371 971 ft 120 kts 301°
2026-04-30 00:27 40.76071 -73.41313 952 ft 124 kts 296°
2026-04-30 00:27 40.76500 -73.42306 980 ft 123 kts 303°
2026-04-30 00:28 40.77019 -73.43224 967 ft 123 kts 308°
2026-04-30 00:28 40.77554 -73.44090 979 ft 118 kts 310°
2026-04-30 00:28 40.78090 -73.44875 1026 ft 114 kts 314°
2026-04-30 00:28 40.78388 -73.45786 963 ft 117 kts 259°
2026-04-30 00:29 40.78055 -73.46759 894 ft 113 kts 233°
2026-04-30 00:29 40.77533 -73.47466 928 ft 103 kts 210°
2026-04-30 00:29 40.76881 -73.47646 966 ft 95 kts 168°
2026-04-30 00:29 40.76360 -73.47163 942 ft 98 kts 123°
2026-04-30 00:30 40.75990 -73.46348 842 ft 106 kts 123°
2026-04-30 00:30 40.75596 -73.45519 796 ft 106 kts 124°
2026-04-30 00:30 40.75178 -73.44706 697 ft 109 kts 129°
2026-04-30 00:30 40.74691 -73.43951 585 ft 100 kts 134°
2026-04-30 00:31 40.74254 -73.43313 454 ft 90 kts 133°
2026-04-30 00:31 40.73844 -73.42725 311 ft 81 kts 134°
2026-04-30 00:31 40.73476 -73.42191 168 ft 74 kts 135°
2026-04-30 00:31 40.73169 -73.41744 81 ft 57 kts 135°
2026-04-30 00:32 40.72899 -73.41354 71 ft 71 kts 134°
2026-04-30 00:32 40.72515 -73.40808 151 ft 87 kts 135°
2026-04-30 00:32 40.72105 -73.40231 386 ft 80 kts 135°
2026-04-30 00:32 40.71865 -73.39602 583 ft 81 kts 90°
2026-04-30 00:33 40.72018 -73.38851 724 ft 85 kts 101°
2026-04-30 00:33 40.71626 -73.38303 887 ft 82 kts 124°
2026-04-30 00:33 40.71761 -73.37566 961 ft 99 kts 58°
2026-04-30 00:33 40.72329 -73.37012 1038 ft 110 kts 12°
2026-04-30 00:34 40.73079 -73.37376 999 ft 125 kts 330°
2026-04-30 00:34 40.73789 -73.38045 1036 ft 120 kts 324°
2026-04-30 00:34 40.74369 -73.38837 996 ft 123 kts 312°
2026-04-30 00:34 40.74906 -73.39763 907 ft 128 kts 304°
2026-04-30 00:35 40.75389 -73.40682 920 ft 118 kts 304°
2026-04-30 00:35 40.75851 -73.41516 973 ft 108 kts 307°
2026-04-30 00:35 40.76307 -73.42283 994 ft 106 kts 307°
2026-04-30 00:35 40.76743 -73.43055 1035 ft 103 kts 302°
2026-04-30 00:36 40.77156 -73.43832 1068 ft 103 kts 306°
2026-04-30 00:36 40.77577 -73.44597 1116 ft 100 kts 305°
2026-04-30 00:36 40.77864 -73.45438 1070 ft 103 kts 263°
2026-04-30 00:36 40.77522 -73.46275 974 ft 105 kts 221°
2026-04-30 00:37 40.76987 -73.46770 1120 ft 84 kts 184°
2026-04-30 00:37 40.76446 -73.46442 1013 ft 95 kts 141°
2026-04-30 00:37 40.75940 -73.45802 817 ft 108 kts 133°
2026-04-30 00:37 40.75471 -73.45084 758 ft 95 kts 132°
2026-04-30 00:38 40.75043 -73.44456 643 ft 91 kts 134°
2026-04-30 00:38 40.74622 -73.43860 550 ft 84 kts 134°
2026-04-30 00:38 40.74271 -73.43346 474 ft 68 kts 134°
2026-04-30 00:38 40.73970 -73.42911 344 ft 63 kts 134°
2026-04-30 00:39 40.73685 -73.42487 225 ft 62 kts 134°
2026-04-30 00:39 40.73395 -73.42068 112 ft 61 kts 135°
2026-04-30 00:39 40.73122 -73.41681 71 ft 49 kts 133°
2026-04-30 00:39 40.72850 -73.41283 100 ft 72 kts 134°
2026-04-30 00:40 40.72535 -73.40826 345 ft 65 kts 133°
2026-04-30 00:40 40.72216 -73.40372 518 ft 70 kts 127°
2026-04-30 00:40 40.72198 -73.39743 682 ft 79 kts 66°
2026-04-30 00:40 40.72635 -73.39202 811 ft 90 kts 38°
2026-04-30 00:41 40.73221 -73.38862 959 ft 96 kts
2026-04-30 00:41 40.73843 -73.39256 955 ft 108 kts 319°
2026-04-30 00:41 40.74351 -73.40039 966 ft 112 kts 307°
2026-04-30 00:41 40.74840 -73.40865 959 ft 115 kts 309°
2026-04-30 00:42 40.75389 -73.41625 989 ft 113 kts 321°
2026-04-30 00:42 40.75988 -73.42240 1003 ft 102 kts 322°
2026-04-30 00:42 40.76125 -73.43023 901 ft 93 kts 246°
2026-04-30 00:42 40.75781 -73.43714 813 ft 84 kts 217°
2026-04-30 00:43 40.75379 -73.44204 772 ft 75 kts 218°
2026-04-30 00:43 40.74983 -73.44179 695 ft 61 kts 142°
2026-04-30 00:43 40.74648 -73.43818 567 ft 62 kts 139°
2026-04-30 00:43 40.74340 -73.43424 465 ft 62 kts 134°
2026-04-30 00:44 40.74046 -73.43010 365 ft 61 kts 132°
2026-04-30 00:44 40.73758 -73.42589 257 ft 62 kts 133°
2026-04-30 00:44 40.73466 -73.42170 149 ft 62 kts 134°
2026-04-30 00:44 40.73177 -73.41754 74 ft 58 kts 134°
2026-04-30 00:45 40.72908 -73.41374 76 ft 69 kts 132°
2026-04-30 00:45 40.72557 -73.40854 196 ft 80 kts 135°
2026-04-30 00:45 40.72170 -73.40306 387 ft 81 kts 130°
2026-04-30 00:45 40.72057 -73.39625 579 ft 85 kts 75°
2026-04-30 00:46 40.72456 -73.38980 701 ft 95 kts 45°
2026-04-30 00:46 40.73052 -73.38521 774 ft 107 kts 12°
2026-04-30 00:46 40.73801 -73.38781 830 ft 116 kts 333°
2026-04-30 00:46 40.74476 -73.39394 922 ft 117 kts 323°
2026-04-30 00:47 40.75114 -73.40112 951 ft 123 kts 322°
2026-04-30 00:47 40.75754 -73.40833 1063 ft 117 kts 319°
2026-04-30 00:47 40.76345 -73.41604 1090 ft 122 kts 310°
2026-04-30 00:47 40.76926 -73.42468 1041 ft 128 kts 311°
2026-04-30 00:48 40.77514 -73.43336 1033 ft 126 kts 312°
2026-04-30 00:48 40.78233 -73.43784 1148 ft 113 kts
2026-04-30 00:48 40.78905 -73.43318 1123 ft 111 kts 57°
2026-04-30 00:48 40.79066 -73.42381 1120 ft 106 kts 105°
2026-04-30 00:49 40.78651 -73.41614 1132 ft 103 kts 149°
2026-04-30 00:49 40.77948 -73.41573 1109 ft 111 kts 201°
2026-04-30 00:49 40.77725 -73.42420 1293 ft 108 kts 296°
2026-04-30 00:49 40.78305 -73.42837 1410 ft 100 kts 18°
2026-04-30 00:50 40.79031 -73.42905 1375 ft 117 kts 336°
2026-04-30 00:50 40.79510 -73.43809 1221 ft 127 kts 274°
2026-04-30 00:50 40.79219 -73.44811 1160 ft 118 kts 217°
2026-04-30 00:50 40.78579 -73.45508 1014 ft 121 kts 215°
2026-04-30 00:51 40.77924 -73.46178 1026 ft 108 kts 210°
2026-04-30 00:51 40.77271 -73.46268 1086 ft 97 kts 162°
2026-04-30 00:51 40.76598 -73.46008 988 ft 106 kts 160°
2026-04-30 00:51 40.75891 -73.45553 752 ft 117 kts 148°
2026-04-30 00:52 40.75356 -73.44917 698 ft 91 kts 135°
2026-04-30 00:52 40.74969 -73.44344 618 ft 77 kts 134°
2026-04-30 00:52 40.74655 -73.43861 601 ft 64 kts 136°
2026-04-30 00:52 40.74328 -73.43431 453 ft 67 kts 133°
2026-04-30 00:53 40.74029 -73.42988 363 ft 62 kts 134°
2026-04-30 00:53 40.73744 -73.42578 259 ft 62 kts 134°
2026-04-30 00:53 40.73445 -73.42145 147 ft 62 kts 134°
2026-04-30 00:53 40.73159 -73.41734 77 ft 57 kts 136°
2026-04-30 00:54 40.72911 -73.41377 70 ft 64 kts 131°
2026-04-30 00:54 40.72584 -73.40887 225 ft 73 kts 133°
2026-04-30 00:54 40.72246 -73.40386 412 ft 75 kts 131°
2026-04-30 00:54 40.72138 -73.39717 568 ft 84 kts 71°
2026-04-30 00:55 40.72556 -73.39101 684 ft 95 kts 46°
2026-04-30 00:55 40.73179 -73.38734 798 ft 104 kts
2026-04-30 00:55 40.74345 -73.39728 967 ft 105 kts 304°
2026-04-30 00:56 40.74774 -73.40533 982 ft 111 kts 306°
2026-04-30 00:56 40.75256 -73.41355 1010 ft 114 kts 309°
2026-04-30 00:56 40.75784 -73.42159 992 ft 118 kts 312°
2026-04-30 00:56 40.76187 -73.43066 963 ft 108 kts 271°
2026-04-30 00:57 40.75892 -73.43900 861 ft 102 kts 224°
2026-04-30 00:57 40.75445 -73.44525 926 ft 76 kts 213°
2026-04-30 00:57 40.75040 -73.44479 783 ft 63 kts 136°
2026-04-30 00:57 40.74765 -73.44051 619 ft 60 kts 133°
2026-04-30 00:58 40.74505 -73.43665 467 ft 54 kts 133°
2026-04-30 00:58 40.74218 -73.43258 354 ft 62 kts 133°
2026-04-30 00:58 40.73920 -73.42832 287 ft 63 kts 133°
2026-04-30 00:58 40.73626 -73.42398 201 ft 65 kts 131°
2026-04-30 00:59 40.73320 -73.41960 112 ft 62 kts 133°
2026-04-30 00:59 40.73038 -73.41554 73 ft 56 kts 132°
2026-04-30 00:59 40.72808 -73.41223 70 ft 52 kts 129°
2026-04-30 00:59 40.72480 -73.40756 169 ft 73 kts 134°
2026-04-30 01:00 40.72158 -73.40295 423 ft 67 kts 129°
2026-04-30 01:00 40.71892 -73.39787 624 ft 68 kts 115°
2026-04-30 01:00 40.71772 -73.39143 782 ft 75 kts 98°
2026-04-30 01:00 40.71739 -73.38443 967 ft 76 kts 96°
2026-04-30 01:01 40.71703 -73.37730 1120 ft 80 kts 104°
2026-04-30 01:01 40.71569 -73.36975 1174 ft 87 kts 107°
2026-04-30 01:01 40.71388 -73.36198 1194 ft 91 kts 115°
2026-04-30 01:01 40.71134 -73.35424 1252 ft 91 kts 116°
2026-04-30 01:02 40.70889 -73.34678 1380 ft 84 kts 113°
2026-04-30 01:02 40.70673 -73.33946 1437 ft 86 kts 122°
2026-04-30 01:02 40.70301 -73.33311 1439 ft 92 kts 130°
2026-04-30 01:02 40.69897 -73.32612 1417 ft 98 kts 127°
2026-04-30 01:03 40.69497 -73.31866 1390 ft 102 kts 126°
2026-04-30 01:03 40.69080 -73.31114 1406 ft 100 kts 129°
2026-04-30 01:03 40.68623 -73.30421 1403 ft 100 kts 131°
2026-04-30 01:03 40.68269 -73.29662 1465 ft 97 kts 114°
2026-04-30 01:04 40.68073 -73.28805 1512 ft 96 kts 104°
2026-04-30 01:04 40.67936 -73.27925 1514 ft 99 kts 105°
2026-04-30 01:04 40.67781 -73.27037 1515 ft 101 kts 105°
2026-04-30 01:04 40.67624 -73.26127 1515 ft 102 kts 105°
2026-04-30 01:05 40.67466 -73.25216 1515 ft 102 kts 104°
2026-04-30 01:05 40.67408 -73.24290 1515 ft 105 kts 77°
2026-04-30 01:05 40.67629 -73.23377 1517 ft 105 kts 75°
2026-04-30 01:05 40.67861 -73.22457 1515 ft 105 kts 75°
2026-04-30 01:06 40.68091 -73.21540 1514 ft 105 kts 75°
2026-04-30 01:06 40.68320 -73.20617 1514 ft 105 kts 76°
2026-04-30 01:06 40.68547 -73.19708 1514 ft 105 kts 76°
2026-04-30 01:06 40.68779 -73.18799 1514 ft 103 kts 75°
2026-04-30 01:07 40.69009 -73.17899 1463 ft 104 kts 75°
2026-04-30 01:07 40.69242 -73.16983 1370 ft 107 kts 75°
2026-04-30 01:07 40.69472 -73.16048 1271 ft 109 kts 75°
2026-04-30 01:07 40.69710 -73.15087 1170 ft 110 kts 75°
2026-04-30 01:08 40.69945 -73.14133 1070 ft 110 kts 75°
2026-04-30 01:08 40.70180 -73.13187 1041 ft 106 kts 75°
2026-04-30 01:08 40.70405 -73.12275 1041 ft 101 kts 75°
2026-04-30 01:08 40.70629 -73.11398 1025 ft 101 kts 74°
2026-04-30 01:09 40.70855 -73.10548 931 ft 94 kts 74°
2026-04-30 01:09 40.71056 -73.09766 818 ft 86 kts 79°
2026-04-30 01:09 40.71216 -73.09019 705 ft 81 kts 78°
2026-04-30 01:09 40.71365 -73.08305 603 ft 83 kts 78°
2026-04-30 01:10 40.71516 -73.07551 511 ft 87 kts 76°
2026-04-30 01:10 40.71905 -73.06976 462 ft 90 kts 19°
2026-04-30 01:10 40.72535 -73.06954 432 ft 88 kts
2026-04-30 01:10 40.73121 -73.06901 441 ft 83 kts 11°
2026-04-30 01:11 40.73672 -73.06756 447 ft 79 kts 19°
2026-04-30 01:11 40.74202 -73.06547 453 ft 77 kts 21°
2026-04-30 01:11 40.74706 -73.06287 437 ft 77 kts 25°
2026-04-30 01:11 40.75212 -73.06050 434 ft 77 kts 15°
2026-04-30 01:12 40.75736 -73.06028 451 ft 73 kts
2026-04-30 01:12 40.76211 -73.06040 377 ft 65 kts
2026-04-30 01:12 40.76481 -73.05729 263 ft 54 kts 104°
2026-04-30 01:12 40.76214 -73.05399 145 ft 54 kts 155°
2026-04-30 01:13 40.75845 -73.05301 44 ft 51 kts 169°
2026-04-30 01:13 40.75586 -73.05253 37 ft 23 kts 174°
2026-04-30 01:13 40.75510 -73.05310 36 ft 8 kts 260°
2026-04-30 01:13 40.75510 -73.05324 35 ft 0 kts 267°
2026-04-30 01:15 40.75510 -73.05413 34 ft 0 kts 267°
2026-04-30 01:15 40.75542 -73.05386 35 ft 0 kts 267°
2026-04-30 01:15 40.75522 -73.05358 35 ft 0 kts 89°
2026-04-30 01:15 40.75507 -73.05358 35 ft 0 kts 89°